INFORMAÇÕES METEOROLÓGICAS
METAR FOR KAVX
ADDS - METARS form results

(2054 UTC 24 April 2019)
Data provider http://aviationweather.gov/metar/data/
 
METAR text: KAVX 242051Z AUTO 23005KT 10SM CLR 21/14 A3001 RMK AO2 SLP144 T02060139 58010
Conditions at: KAVX (AVALON , CA, US) observed 2051 UTC 24 April 2019
Temperature: 20.6°C (69°F)
Dewpoint: 13.9°C (57°F) [RH = 65%]
Pressure (altimeter): 30.01 inches Hg (1016.3 mb)
[Sea-level pressure: 1014.4 mb]
Winds: from the SW (230 degrees) at 6 MPH (5 knots; 2.6 m/s)
Visibility: 10 or more miles (16+ km)
Ceiling: at least 12,000 feet AGL
Clouds: sky clear below 12,000 feet AGL
Weather: automated observation with no human augmentation;
there may or may not be significant weather present at this time

 MAPA DO AEROPORTO

 INFORMAÇÕES DA PISTA
Pista 04 Tamanho da pista 3000 ft Largura da pista 60 ft
Elevação da pista 1602 ft Ranhura da pista 120 ft Proa da pista 54
Pista 22 Tamanho da pista 3000 ft Largura da pista 60 ft
Elevação da pista 1602 ft Ranhura da pista 149 ft Proa da pista 234

 FREQUÊNCIAS DO AEROPORTO
Tipo A/D Nome SOCAL APP/ Frequência 127.4 MHZ
Tipo UNIC Nome CTAF/UNICO Frequência 122.7 MHZ

 AUXÍLIOS DE NAVEGAÇÃO PRÓXIMOS AO AEROPORTO



Powered by Mercosul Lnhas Aereas